Time;durP1;ratioP1;P1;durP2;ratioP2;P2;SDS_P1;SDS_P2;PMS_P1;PMS_P2;Temp;Humidity;BMP_temperature;BMP_pressure;BME280_temperature;BME280_humidity;BME280_pressure;Samples;Min_cycle;Max_cycle;Signal;HPM_P1;HPM_P2
2021/01/09 00:00:21;;;;;;;3.67;1.00;;;;;;;0.50;88.82;102253.75;5068665;28;20098;-50
2021/01/09 00:02:48;;;;;;;2.97;0.90;;;;;;;0.46;88.82;102257.09;5069338;28;20056;-49
2021/01/09 00:05:16;;;;;;;1.90;0.60;;;;;;;0.41;88.91;102248.59;5068808;28;20514;-52
2021/01/09 00:07:43;;;;;;;3.53;1.00;;;;;;;0.37;88.96;102253.66;5068661;28;20048;-48
2021/01/09 00:10:10;;;;;;;1.75;0.80;;;;;;;0.34;89.15;102262.28;5069066;28;20051;-53
2021/01/09 00:12:38;;;;;;;2.53;0.90;;;;;;;0.30;89.35;102252.75;5068496;28;20569;-50
2021/01/09 00:15:06;;;;;;;3.38;1.10;;;;;;;0.25;89.10;102258.81;5069333;28;20048;-53
2021/01/09 00:17:33;;;;;;;5.32;2.00;;;;;;;0.20;89.30;102263.22;5069033;28;20052;-51
2021/01/09 00:20:00;;;;;;;2.47;0.90;;;;;;;0.14;89.33;102259.38;5068546;28;20087;-52
2021/01/09 00:22:27;;;;;;;2.25;0.80;;;;;;;0.10;89.56;102262.69;5068695;28;20044;-51
2021/01/09 00:24:55;;;;;;;4.05;1.38;;;;;;;0.07;89.17;102266.66;5068908;28;20096;-51
2021/01/09 00:27:21;;;;;;;2.75;0.90;;;;;;;0.03;89.68;102262.59;5068110;28;20423;-51
2021/01/09 00:29:48;;;;;;;2.47;1.00;;;;;;;0.00;88.91;102263.84;5069044;28;20206;-52
2021/01/09 00:32:15;;;;;;;2.53;0.80;;;;;;;-0.01;89.32;102261.31;5067124;28;20078;-49
2021/01/09 00:34:42;;;;;;;5.20;1.20;;;;;;;0.00;89.56;102268.50;5068464;28;20044;-48
2021/01/09 00:37:09;;;;;;;2.85;0.60;;;;;;;0.01;89.27;102267.44;5068693;28;20040;-54
2021/01/09 00:39:36;;;;;;;3.22;0.63;;;;;;;0.00;89.97;102268.50;5068873;28;20055;-49
2021/01/09 00:42:03;;;;;;;2.33;0.60;;;;;;;0.01;89.52;102267.44;5067969;28;20049;-47
2021/01/09 00:44:30;;;;;;;2.80;0.55;;;;;;;0.02;89.98;102265.53;5068622;28;20102;-51
2021/01/09 00:46:58;;;;;;;3.88;0.63;;;;;;;0.04;89.61;102271.69;5068218;28;20051;-51
2021/01/09 00:49:26;;;;;;;3.80;1.33;;;;;;;0.04;89.71;102275.28;5057109;28;20130;-52
2021/01/09 00:51:53;;;;;;;2.47;0.90;;;;;;;0.06;90.15;102280.59;5068686;28;20236;-52
2021/01/09 00:54:19;;;;;;;11.10;2.67;;;;;;;0.07;90.23;102283.13;5068524;28;20055;-52
2021/01/09 00:56:51;;;;;;;6.20;1.88;;;;;;;0.11;89.80;102278.97;5067725;28;20056;-51
2021/01/09 00:59:19;;;;;;;5.82;1.42;;;;;;;0.15;90.13;102290.41;5068491;28;20049;-52
2021/01/09 01:01:49;;;;;;;6.07;1.73;;;;;;;0.20;89.75;102287.94;5068265;28;20088;-53
2021/01/09 01:04:16;;;;;;;7.05;1.38;;;;;;;0.23;90.31;102291.09;5068360;28;20506;-51
2021/01/09 01:06:43;;;;;;;5.72;1.08;;;;;;;0.29;90.29;102290.31;5068886;28;20218;-50
2021/01/09 01:09:10;;;;;;;6.10;1.13;;;;;;;0.31;89.74;102282.75;5066814;28;20449;-52
2021/01/09 01:11:37;;;;;;;3.83;1.00;;;;;;;0.32;90.09;102286.34;5069111;28;20075;-54
2021/01/09 01:14:04;;;;;;;2.67;0.70;;;;;;;0.30;89.99;102289.28;5068130;28;20072;-48
2021/01/09 01:16:32;;;;;;;2.47;0.60;;;;;;;0.27;89.43;102291.56;5067970;28;20064;-55
2021/01/09 01:18:59;;;;;;;3.75;0.95;;;;;;;0.23;89.64;102285.63;5068384;28;20453;-53
2021/01/09 01:21:27;;;;;;;2.70;0.65;;;;;;;0.18;89.27;102288.13;5068544;28;20059;-50
2021/01/09 01:23:54;;;;;;;2.47;0.50;;;;;;;0.12;89.32;102293.53;5067619;28;20177;-55
2021/01/09 01:26:20;;;;;;;3.50;0.80;;;;;;;0.06;89.41;102289.66;5068363;28;20079;-52
2021/01/09 01:28:47;;;;;;;4.53;1.33;;;;;;;0.03;89.69;102292.78;5068106;28;20058;-52
2021/01/09 01:31:14;;;;;;;4.25;1.02;;;;;;;-0.01;89.99;102288.75;5068108;28;20135;-55
2021/01/09 01:33:42;;;;;;;4.95;1.30;;;;;;;-0.06;89.57;102291.22;5068171;28;20044;-53
2021/01/09 01:36:09;;;;;;;8.27;1.40;;;;;;;-0.12;89.30;102297.47;5068336;28;20048;-53
2021/01/09 01:38:36;;;;;;;3.38;0.90;;;;;;;-0.16;89.24;102301.66;5067483;28;20048;-53
2021/01/09 01:41:04;;;;;;;2.45;0.70;;;;;;;-0.19;89.99;102299.28;5068104;28;20568;-54
2021/01/09 01:43:32;;;;;;;4.18;1.45;;;;;;;-0.23;89.86;102307.09;5068007;28;20472;-54
2021/01/09 01:46:01;;;;;;;9.05;1.75;;;;;;;-0.26;89.52;102306.59;5067756;28;20402;-55
2021/01/09 01:48:29;;;;;;;6.85;1.70;;;;;;;-0.30;89.52;102313.50;5068017;28;20391;-52
2021/01/09 01:50:57;;;;;;;4.35;1.00;;;;;;;-0.35;89.78;102306.72;5067895;28;20131;-53
2021/01/09 01:53:26;;;;;;;2.92;0.68;;;;;;;-0.39;89.95;102312.75;5068213;28;20083;-55
2021/01/09 01:55:54;;;;;;;2.35;0.60;;;;;;;-0.41;90.11;102310.25;5067363;28;20052;-54
2021/01/09 01:58:22;;;;;;;1.95;0.90;;;;;;;-0.43;90.28;102317.81;5067926;28;20072;-54
2021/01/09 02:00:49;;;;;;;6.20;0.98;;;;;;;-0.45;89.97;102317.13;5067770;28;20055;-56
2021/01/09 02:03:19;;;;;;;2.83;0.95;;;;;;;-0.46;90.39;102318.19;5068145;28;20106;-50
2021/01/09 02:05:59;;;;;;;5.45;1.65;;;;;;;-0.49;89.79;102324.03;5067334;28;20044;-54
2021/01/09 02:08:31;;;;;;;4.15;1.20;;;;;;;-0.53;90.02;102319.97;5048064;28;20056;-55
2021/01/09 02:11:01;;;;;;;7.72;1.40;;;;;;;-0.55;90.18;102327.53;5063350;28;20053;-55
2021/01/09 02:13:37;;;;;;;3.47;0.63;;;;;;;-0.57;89.63;102326.88;5067658;28;20053;-55
2021/01/09 02:16:06;;;;;;;4.10;1.10;;;;;;;-0.60;89.50;102331.91;5067801;28;20119;-56
2021/01/09 02:18:36;;;;;;;2.85;0.88;;;;;;;-0.62;89.88;102333.97;5067751;28;20131;-59
2021/01/09 02:21:18;;;;;;;3.78;0.75;;;;;;;-0.63;89.80;102332.28;5070059;28;20049;-58
2021/01/09 02:23:46;;;;;;;4.15;1.30;;;;;;;-0.66;90.36;102327.16;5071740;28;20482;-59
2021/01/09 02:26:13;;;;;;;9.00;1.30;;;;;;;-0.67;90.36;102329.06;5070615;28;20379;-58
2021/01/09 02:28:40;;;;;;;7.72;2.05;;;;;;;-0.69;89.80;102328.41;5071312;28;20040;-58
2021/01/09 02:31:08;;;;;;;3.85;1.05;;;;;;;-0.70;90.11;102337.66;5071400;28;20487;-57
2021/01/09 02:33:37;;;;;;;6.93;1.02;;;;;;;-0.72;89.81;102339.72;5071041;28;20407;-59
2021/01/09 02:36:05;;;;;;;8.02;1.52;;;;;;;-0.73;89.87;102338.88;5071073;28;20479;-60
2021/01/09 02:38:31;;;;;;;6.43;1.27;;;;;;;-0.75;90.39;102335.47;5071462;28;20119;-59
2021/01/09 02:41:03;;;;;;;3.85;1.00;;;;;;;-0.74;89.83;102336.31;5070445;28;20043;-59
2021/01/09 02:43:30;;;;;;;9.93;1.60;;;;;;;-0.72;90.30;102337.00;5070830;28;20091;-60
2021/01/09 02:45:57;;;;;;;5.25;1.00;;;;;;;-0.70;90.44;102335.75;5070936;28;20483;-61
2021/01/09 02:48:24;;;;;;;4.28;0.65;;;;;;;-0.66;90.67;102340.88;5059548;28;20131;-61
2021/01/09 02:50:51;;;;;;;4.13;0.70;;;;;;;-0.61;90.62;102333.78;5070844;28;20122;-61
2021/01/09 02:53:18;;;;;;;6.80;1.00;;;;;;;-0.54;90.50;102331.97;5070786;28;20501;-61
2021/01/09 02:55:44;;;;;;;7.32;0.70;;;;;;;-0.46;90.41;102339.25;5070089;28;20143;-61
2021/01/09 02:58:12;;;;;;;4.20;0.70;;;;;;;-0.37;90.73;102327.13;5070245;28;20094;-62
2021/01/09 03:00:39;;;;;;;7.35;1.02;;;;;;;-0.32;90.29;102330.16;5070999;28;20124;-62
2021/01/09 03:03:05;;;;;;;4.65;0.60;;;;;;;-0.30;90.04;102329.97;5069787;28;20511;-62
2021/01/09 03:05:32;;;;;;;7.40;0.77;;;;;;;-0.29;90.17;102326.19;5070830;28;20048;-62
2021/01/09 03:07:59;;;;;;;9.02;0.90;;;;;;;-0.29;90.67;102339.91;5070237;28;20128;-62
2021/01/09 03:10:26;;;;;;;4.82;0.55;;;;;;;-0.29;90.06;102329.78;5070186;28;20131;-63
2021/01/09 03:12:52;;;;;;;2.63;0.60;;;;;;;-0.30;90.40;102332.72;5068658;28;20410;-63
2021/01/09 03:15:20;;;;;;;4.43;0.60;;;;;;;-0.32;90.27;102335.66;5070641;28;20147;-62
2021/01/09 03:17:48;;;;;;;6.95;0.80;;;;;;;-0.36;89.58;102337.91;5068727;28;20044;-61
2021/01/09 03:20:18;;;;;;;5.55;0.70;;;;;;;-0.38;90.04;102340.00;5070627;28;20418;-61
2021/01/09 03:22:45;;;;;;;8.10;0.80;;;;;;;-0.43;89.65;102342.47;5069564;28;20044;-60
2021/01/09 03:25:12;;;;;;;7.38;0.90;;;;;;;-0.41;90.15;102339.56;5070089;28;20119;-61
2021/01/09 03:27:39;;;;;;;8.50;0.70;;;;;;;-0.39;90.40;102337.44;5070075;28;20048;-61
2021/01/09 03:30:06;;;;;;;6.57;0.77;;;;;;;-0.35;90.63;102331.38;5069905;28;20037;-61
2021/01/09 03:32:34;;;;;;;6.20;0.65;;;;;;;-0.29;90.61;102334.41;5068825;28;20042;-60
2021/01/09 03:35:02;;;;;;;10.23;0.80;;;;;;;-0.25;90.32;102336.59;5070174;28;20106;-60
2021/01/09 03:37:29;;;;;;;6.25;0.88;;;;;;;-0.20;90.72;102352.47;5069267;28;20040;-61
2021/01/09 03:39:57;;;;;;;15.20;1.25;;;;;;;-0.14;90.78;102348.94;5069893;28;20052;-61
2021/01/09 03:42:23;;;;;;;8.70;0.57;;;;;;;-0.11;90.20;102346.69;5069993;28;20056;-60
2021/01/09 03:44:50;;;;;;;5.55;0.60;;;;;;;-0.03;90.52;102348.47;5065544;28;20488;-60
2021/01/09 03:47:17;;;;;;;2.92;0.40;;;;;;;-0.01;90.28;102341.75;5069746;28;20045;-60
2021/01/09 03:49:45;;;;;;;5.78;0.63;;;;;;;0.04;90.50;102338.41;5069329;28;20080;-61
2021/01/09 03:52:11;;;;;;;5.70;0.75;;;;;;;0.10;90.36;102337.63;5069117;28;20483;-61
2021/01/09 03:54:38;;;;;;;9.23;0.90;;;;;;;0.16;90.17;102338.75;5069588;28;20048;-61
2021/01/09 03:57:05;;;;;;;5.43;0.60;;;;;;;0.21;90.24;102333.50;5069710;28;20454;-61
2021/01/09 03:59:32;;;;;;;6.40;0.60;;;;;;;0.24;90.58;102336.72;5068617;28;20119;-60
2021/01/09 04:02:00;;;;;;;5.70;0.65;;;;;;;0.28;90.11;102339.94;5069343;28;20036;-60
2021/01/09 04:04:27;;;;;;;5.65;0.60;;;;;;;0.33;90.00;102340.22;5069640;28;20491;-60
2021/01/09 04:06:55;;;;;;;6.03;0.50;;;;;;;0.38;90.21;102340.47;5069703;28;20041;-60
2021/01/09 04:09:22;;;;;;;7.63;0.60;;;;;;;0.42;90.23;102349.16;5069633;28;20071;-60
2021/01/09 04:11:49;;;;;;;4.93;0.55;;;;;;;0.45;90.20;102346.88;5068615;28;20048;-60
2021/01/09 04:14:15;;;;;;;6.15;0.60;;;;;;;0.50;90.18;102351.78;5069761;28;20044;-61
2021/01/09 04:16:42;;;;;;;5.32;0.52;;;;;;;0.52;90.42;102352.44;5069262;28;20381;-60
2021/01/09 04:19:09;;;;;;;9.10;0.60;;;;;;;0.56;90.56;102360.09;5068802;28;20119;-61
2021/01/09 04:21:43;;;;;;;5.45;0.60;;;;;;;0.61;90.29;102360.34;5070052;28;20056;-61
2021/01/09 04:24:11;;;;;;;7.63;0.68;;;;;;;0.65;90.43;102366.28;5069429;28;20452;-61
2021/01/09 04:26:38;;;;;;;10.32;1.08;;;;;;;0.68;90.17;102361.25;5069627;28;20044;-61
2021/01/09 04:29:05;;;;;;;9.52;0.82;;;;;;;0.72;90.28;102366.34;5069378;28;20657;-61
2021/01/09 04:31:31;;;;;;;5.55;0.60;;;;;;;0.73;89.93;102368.06;5070087;28;20071;-61
2021/01/09 04:33:59;;;;;;;10.23;1.02;;;;;;;0.73;90.21;102355.19;5069324;28;20044;-61
2021/01/09 04:36:26;;;;;;;7.95;0.75;;;;;;;0.76;89.72;102363.03;5069942;28;20075;-61
2021/01/09 04:38:52;;;;;;;10.55;1.33;;;;;;;0.77;90.30;102364.72;5069979;28;20040;-62
2021/01/09 04:41:21;;;;;;;7.03;0.70;;;;;;;0.80;90.12;102367.06;5067450;28;20472;-62
2021/01/09 04:43:48;;;;;;;6.70;0.65;;;;;;;0.84;90.52;102371.09;5069556;28;20124;-61
2021/01/09 04:46:17;;;;;;;5.43;0.60;;;;;;;0.89;90.58;102373.28;5069305;28;20047;-61
2021/01/09 04:48:44;;;;;;;8.20;0.80;;;;;;;0.95;90.46;102372.50;5050261;28;20396;-61
2021/01/09 04:51:11;;;;;;;7.28;0.77;;;;;;;0.96;90.25;102375.03;5069290;28;20040;-61
2021/01/09 04:53:40;;;;;;;3.63;0.55;;;;;;;0.97;89.85;102387.72;5069872;28;20072;-61
2021/01/09 04:56:08;;;;;;;9.90;1.15;;;;;;;0.96;89.72;102380.53;5068552;28;20041;-62
2021/01/09 04:58:38;;;;;;;6.53;0.73;;;;;;;0.98;89.83;102378.44;5069690;28;20055;-61
2021/01/09 05:01:05;;;;;;;6.20;0.82;;;;;;;0.98;90.46;102374.84;5068405;28;20497;-61
2021/01/09 05:03:33;;;;;;;4.70;0.52;;;;;;;1.01;89.91;102375.25;5069719;28;20040;-61
2021/01/09 05:06:01;;;;;;;5.60;0.60;;;;;;;1.03;89.89;102370.44;5069332;28;20094;-61
2021/01/09 05:08:28;;;;;;;6.90;0.63;;;;;;;1.09;90.34;102373.44;5069381;28;20051;-61
2021/01/09 05:10:55;;;;;;;8.82;0.70;;;;;;;1.15;90.61;102375.41;5069314;28;20040;-61
2021/01/09 05:13:22;;;;;;;3.53;0.47;;;;;;;1.18;90.09;102375.00;5069530;28;20406;-61
2021/01/09 05:15:54;;;;;;;4.85;0.52;;;;;;;1.19;89.77;102374.81;5068251;28;20151;-61
2021/01/09 05:18:21;;;;;;;8.50;1.00;;;;;;;1.18;89.84;102373.09;5069589;28;20143;-61
2021/01/09 05:20:47;;;;;;;3.58;0.40;;;;;;;1.17;90.26;102378.78;5068939;28;20059;-61
2021/01/09 05:23:16;;;;;;;6.88;0.50;;;;;;;1.17;90.31;102385.16;5068873;28;20087;-61
2021/01/09 05:25:45;;;;;;;4.82;0.50;;;;;;;1.15;90.26;102392.75;5068915;28;20518;-61
2021/01/09 05:28:11;;;;;;;4.55;0.50;;;;;;;1.13;90.17;102388.50;5068847;28;20063;-61
2021/01/09 05:30:42;;;;;;;3.05;0.50;;;;;;;1.15;89.59;102390.00;5068881;28;20044;-60
2021/01/09 05:33:09;;;;;;;5.13;0.47;;;;;;;1.15;89.68;102394.63;5069108;28;20419;-61
2021/01/09 05:35:38;;;;;;;13.55;0.75;;;;;;;1.15;89.73;102398.25;5069333;28;20447;-61
2021/01/09 05:38:05;;;;;;;4.63;0.50;;;;;;;1.17;89.88;102411.78;5068372;28;20059;-58
2021/01/09 05:40:38;;;;;;;7.53;0.60;;;;;;;1.25;90.34;102409.72;5067717;28;20414;-57
2021/01/09 05:43:08;;;;;;;;;;;;;;;1.35;90.57;102393.75;5069114;28;20135;-57
2021/01/09 05:45:37;;;;;;;2.80;0.32;;;;;;;1.47;91.02;102402.28;5069195;28;20023;-57
2021/01/09 05:48:07;;;;;;;5.65;0.40;;;;;;;1.58;91.02;102407.22;5068833;28;20044;-57
2021/01/09 05:50:41;;;;;;;3.75;0.40;;;;;;;1.69;90.60;102409.41;5068439;28;20497;-55
2021/01/09 05:53:08;;;;;;;5.28;0.45;;;;;;;1.77;90.57;102407.53;5068617;28;20080;-52
2021/01/09 05:55:40;;;;;;;5.95;0.63;;;;;;;1.86;90.01;102409.91;5071374;28;20419;-50
2021/01/09 05:58:07;;;;;;;2.95;0.38;;;;;;;1.92;90.24;102403.59;5071879;28;20063;-51
2021/01/09 06:00:37;;;;;;;6.32;0.77;;;;;;;1.98;90.16;102407.44;5072786;28;20048;-53
2021/01/09 06:03:11;;;;;;;7.78;0.50;;;;;;;2.00;89.77;102408.91;5072447;28;20044;-48
2021/01/09 06:05:45;;;;;;;6.28;0.45;;;;;;;2.03;89.83;102415.91;5072075;28;20530;-49
2021/01/09 06:08:15;;;;;;;2.50;0.40;;;;;;;2.05;89.76;102411.91;5072184;28;20462;-48
2021/01/09 06:10:46;;;;;;;5.00;0.50;;;;;;;2.06;89.50;102415.50;5072877;28;20143;-49
2021/01/09 06:13:14;;;;;;;6.75;0.80;;;;;;;2.04;89.58;102417.63;5071417;28;20044;-50
2021/01/09 06:15:43;;;;;;;4.45;0.60;;;;;;;2.02;89.62;102416.97;5072542;28;20079;-52
2021/01/09 06:18:10;;;;;;;5.22;0.60;;;;;;;2.00;89.59;102417.16;5071657;28;20076;-52
2021/01/09 06:20:37;;;;;;;5.43;0.60;;;;;;;1.98;89.34;102413.81;5072117;28;20136;-50
2021/01/09 06:23:05;;;;;;;4.18;0.50;;;;;;;2.00;89.75;102425.44;5072017;28;20048;-50
2021/01/09 06:25:35;;;;;;;8.07;0.80;;;;;;;2.01;89.43;102426.28;5071757;28;20051;-51
2021/01/09 06:28:05;;;;;;;6.28;0.52;;;;;;;2.05;89.58;102420.16;5071964;28;21339;-53
2021/01/09 06:30:34;;;;;;;5.70;0.43;;;;;;;2.12;89.99;102435.88;5070896;28;20086;-52
2021/01/09 06:33:03;;;;;;;4.75;0.60;;;;;;;2.15;89.94;102425.31;5071082;28;20140;-54
2021/01/09 06:35:32;;;;;;;6.85;0.50;;;;;;;2.20;89.67;102419.19;5072010;28;20044;-55
2021/01/09 06:38:02;;;;;;;6.57;0.80;;;;;;;2.23;89.53;102425.13;5071954;28;20469;-51
2021/01/09 06:40:30;;;;;;;8.55;0.63;;;;;;;2.24;89.45;102413.03;5071330;28;20079;-55
2021/01/09 06:42:57;;;;;;;6.07;0.70;;;;;;;2.25;89.31;102420.25;5072096;28;20491;-51
2021/01/09 06:45:25;;;;;;;4.57;0.93;;;;;;;2.21;89.41;102423.63;5071747;28;20125;-52
2021/01/09 06:47:59;;;;;;;3.70;0.40;;;;;;;2.16;89.20;102423.41;5071460;28;20040;-55
2021/01/09 06:50:34;;;;;;;3.58;0.50;;;;;;;2.11;89.24;102432.28;5071761;28;20441;-53
2021/01/09 06:53:01;;;;;;;3.70;0.50;;;;;;;2.04;89.37;102426.72;5071733;28;20151;-53
2021/01/09 06:55:54;;;;;;;4.57;0.70;;;;;;;1.99;89.24;102432.03;5070946;28;20189;-55
2021/01/09 06:58:27;;;;;;;2.20;0.40;;;;;;;1.90;89.28;102433.22;5071906;28;20048;-54
2021/01/09 07:01:21;;;;;;;5.70;0.60;;;;;;;1.84;89.36;102434.03;5070887;28;20128;-54
2021/01/09 07:03:48;;;;;;;4.30;0.57;;;;;;;1.76;89.20;102430.63;5068058;28;20067;-52
2021/01/09 07:06:15;;;;;;;6.30;0.60;;;;;;;1.73;89.40;102432.72;5071178;28;20079;-52
2021/01/09 07:08:43;;;;;;;5.10;0.98;;;;;;;1.73;89.55;102438.22;5072287;28;20044;-49
2021/01/09 07:11:14;;;;;;;5.93;0.60;;;;;;;1.82;90.42;102440.78;5072170;28;20485;-54
2021/01/09 07:13:41;;;;;;;3.95;0.75;;;;;;;1.96;90.62;102437.06;5072679;28;20170;-52
2021/01/09 07:16:09;;;;;;;6.75;0.80;;;;;;;2.07;90.71;102448.34;5071795;28;20392;-50
2021/01/09 07:18:40;;;;;;;6.45;0.70;;;;;;;2.14;90.36;102445.63;5072474;28;20167;-54
2021/01/09 07:21:07;;;;;;;6.18;0.80;;;;;;;2.17;90.36;102439.72;5071496;28;20146;-53
2021/01/09 07:23:35;;;;;;;8.15;0.90;;;;;;;2.22;90.18;102447.34;5071995;28;20048;-53
2021/01/09 07:26:05;;;;;;;6.70;0.60;;;;;;;2.28;89.99;102447.38;5071763;28;20051;-52
2021/01/09 07:28:36;;;;;;;6.75;0.65;;;;;;;2.31;90.00;102444.22;5072171;28;20049;-56
2021/01/09 07:31:10;;;;;;;9.98;0.90;;;;;;;2.32;89.88;102456.94;5071743;28;20165;-53
2021/01/09 07:33:39;;;;;;;7.70;1.25;;;;;;;2.33;90.01;102453.13;5072590;28;20500;-54
2021/01/09 07:36:07;;;;;;;10.75;1.05;;;;;;;2.35;89.94;102459.28;5071067;28;20052;-53
2021/01/09 07:38:43;;;;;;;8.13;0.90;;;;;;;2.36;90.04;102449.13;5071847;28;20172;-54
2021/01/09 07:41:30;;;;;;;7.32;0.82;;;;;;;2.36;89.99;102449.13;5071399;28;20051;-54
2021/01/09 07:44:10;;;;;;;7.18;1.20;;;;;;;2.38;89.60;102453.38;5071746;28;20049;-54
2021/01/09 07:46:49;;;;;;;9.00;0.80;;;;;;;2.41;90.15;102452.94;5071729;28;20056;-56
2021/01/09 07:49:26;;;;;;;8.15;0.90;;;;;;;2.48;90.44;102452.13;5070520;28;20432;-53
2021/01/09 07:51:54;;;;;;;5.25;0.68;;;;;;;2.53;90.28;102450.44;5070445;28;20072;-56
2021/01/09 07:54:35;;;;;;;6.57;0.85;;;;;;;2.60;90.29;102458.75;5071966;28;20044;-53
2021/01/09 07:57:02;;;;;;;7.38;0.90;;;;;;;2.58;90.25;102461.72;5070410;28;20059;-56
2021/01/09 07:59:30;;;;;;;9.40;1.10;;;;;;;2.58;89.60;102471.88;5070531;28;20204;-57
2021/01/09 08:01:56;;;;;;;5.75;0.85;;;;;;;2.55;89.71;102464.88;5071275;28;20409;-56
2021/01/09 08:04:24;;;;;;;6.35;0.80;;;;;;;2.53;89.79;102469.75;5070876;28;20124;-54
2021/01/09 08:06:52;;;;;;;7.30;0.80;;;;;;;2.51;89.50;102469.09;5070972;28;20044;-58
2021/01/09 08:09:19;;;;;;;7.50;0.88;;;;;;;2.51;89.77;102476.50;5071458;28;20499;-58
2021/01/09 08:11:47;;;;;;;5.72;0.80;;;;;;;2.50;89.55;102480.31;5070482;28;20046;-57
2021/01/09 08:14:14;;;;;;;9.68;0.80;;;;;;;2.51;89.48;102484.78;5069887;28;20076;-57
2021/01/09 08:16:42;;;;;;;11.82;1.08;;;;;;;2.52;89.83;102483.72;5070802;28;20045;-55
2021/01/09 08:19:17;;;;;;;5.75;0.70;;;;;;;2.55;89.64;102480.56;5068704;28;20503;-57
2021/01/09 08:21:46;;;;;;;4.65;0.75;;;;;;;2.56;89.72;102482.25;5070888;28;20175;-56
2021/01/09 08:24:20;;;;;;;8.07;0.90;;;;;;;2.59;89.56;102482.69;5071006;28;20053;-55
2021/01/09 08:26:50;;;;;;;5.95;0.68;;;;;;;2.67;89.95;102487.16;5070320;28;20054;-56
2021/01/09 08:29:17;;;;;;;4.70;0.70;;;;;;;2.78;90.25;102486.56;5070806;28;20046;-56
2021/01/09 08:31:44;;;;;;;10.02;1.25;;;;;;;2.91;89.93;102481.09;5071057;28;20051;-56
2021/01/09 08:34:11;;;;;;;5.80;0.80;;;;;;;3.00;89.41;102490.00;5069783;28;20045;-53
2021/01/09 08:36:41;;;;;;;4.60;0.70;;;;;;;3.08;89.62;102490.66;5071172;28;20458;-56
2021/01/09 08:39:08;;;;;;;4.97;0.60;;;;;;;3.12;89.23;102499.38;5069814;28;20590;-55
2021/01/09 08:41:36;;;;;;;10.25;0.95;;;;;;;3.16;89.27;102494.28;5070861;28;20044;-54
2021/01/09 08:44:09;;;;;;;9.35;1.60;;;;;;;3.18;89.22;102500.44;5070344;28;20127;-55
2021/01/09 08:46:37;;;;;;;8.10;1.13;;;;;;;3.22;89.26;102505.31;5068952;28;20396;-54
2021/01/09 08:49:06;;;;;;;11.15;0.93;;;;;;;3.32;89.48;102508.53;5070224;28;20046;-50
2021/01/09 08:51:34;;;;;;;10.35;0.80;;;;;;;3.46;89.61;102503.84;5070567;28;20135;-53
2021/01/09 08:54:03;;;;;;;8.00;1.33;;;;;;;3.60;89.46;102502.78;5069573;28;20052;-52
2021/01/09 08:56:32;;;;;;;8.82;0.88;;;;;;;3.71;89.25;102509.59;5070360;28;20094;-56
2021/01/09 08:59:01;;;;;;;3.20;0.55;;;;;;;3.79;88.81;102517.66;5070238;28;20487;-53
2021/01/09 09:01:31;;;;;;;5.00;0.57;;;;;;;3.90;88.35;102516.16;5068978;28;20054;-56
2021/01/09 09:04:02;;;;;;;5.18;0.52;;;;;;;4.12;88.67;102518.44;5070153;28;20045;-57
2021/01/09 09:06:35;;;;;;;5.68;0.70;;;;;;;4.73;88.81;102523.56;5070742;28;20051;-56
2021/01/09 09:09:03;;;;;;;4.13;0.70;;;;;;;5.63;88.13;102515.09;5069334;28;20059;-58
2021/01/09 09:11:30;;;;;;;5.00;0.63;;;;;;;6.61;86.46;102521.56;5070559;28;20045;-58
2021/01/09 09:14:04;;;;;;;6.55;0.90;;;;;;;7.15;83.83;102514.22;5070040;28;20049;-57
2021/01/09 09:16:32;;;;;;;5.45;0.70;;;;;;;7.55;83.46;102515.31;5070409;28;20556;-58
2021/01/09 09:19:09;;;;;;;4.63;0.60;;;;;;;8.34;82.73;102515.84;5070202;28;20040;-55
2021/01/09 09:21:42;;;;;;;5.45;0.60;;;;;;;9.19;80.32;102520.69;5059990;28;20045;-57
2021/01/09 09:24:09;;;;;;;6.82;1.00;;;;;;;9.37;78.13;102520.47;5068859;28;20143;-53
2021/01/09 09:26:37;;;;;;;7.53;0.90;;;;;;;8.96;78.91;102527.19;5068762;28;20135;-57
2021/01/09 09:29:04;;;;;;;4.70;0.82;;;;;;;8.37;79.92;102539.56;5069107;28;20139;-60
2021/01/09 09:31:33;;;;;;;7.55;0.90;;;;;;;7.81;80.70;102529.81;5072882;28;20083;-57
2021/01/09 09:34:11;;;;;;;10.23;1.40;;;;;;;7.24;81.22;102527.53;5072030;28;20064;-58
2021/01/09 09:36:40;;;;;;;4.10;0.52;;;;;;;6.87;81.76;102531.47;5073691;28;20120;-59
2021/01/09 09:39:12;;;;;;;6.00;0.70;;;;;;;6.61;81.92;102540.13;5073263;28;20384;-59
2021/01/09 09:41:56;;;;;;;5.10;0.70;;;;;;;6.38;81.60;102538.06;5073853;28;20499;-58
2021/01/09 09:44:34;;;;;;;9.82;0.88;;;;;;;6.28;82.19;102538.59;5072069;28;20058;-57
2021/01/09 09:47:01;;;;;;;8.07;1.30;;;;;;;6.33;81.89;102537.91;5071682;28;20072;-57
2021/01/09 09:49:30;;;;;;;8.48;1.00;;;;;;;6.87;81.19;102545.34;5072985;28;20040;-58
2021/01/09 09:51:58;;;;;;;5.05;0.90;;;;;;;7.46;79.35;102538.09;5073878;28;20054;-54
2021/01/09 09:54:29;;;;;;;4.78;0.73;;;;;;;7.50;78.48;102534.63;5073639;28;20507;-59
2021/01/09 09:56:56;;;;;;;8.02;1.10;;;;;;;7.30;78.30;102538.78;5072301;28;20088;-59
2021/01/09 09:59:29;;;;;;;7.35;1.33;;;;;;;7.29;78.91;102539.84;5073927;28;20045;-60
2021/01/09 10:02:00;;;;;;;8.30;1.00;;;;;;;7.55;78.60;102540.31;5073318;28;20480;-60
2021/01/09 10:04:28;;;;;;;7.35;0.65;;;;;;;8.06;77.78;102538.78;5073312;28;20106;-61
2021/01/09 10:06:55;;;;;;;7.95;1.10;;;;;;;8.96;75.86;102533.59;5073760;28;20052;-61
2021/01/09 10:09:24;;;;;;;11.10;1.10;;;;;;;9.74;74.41;102533.94;5054216;28;20037;-61
2021/01/09 10:11:53;;;;;;;10.45;1.15;;;;;;;10.62;72.62;102533.91;5072493;28;20052;-61
2021/01/09 10:14:22;;;;;;;7.45;0.95;;;;;;;11.21;71.31;102536.00;5073951;28;20487;-62
2021/01/09 10:16:49;;;;;;;6.45;0.73;;;;;;;11.05;70.72;102540.59;5073152;28;20486;-62
2021/01/09 10:19:18;;;;;;;7.80;0.98;;;;;;;10.51;71.04;102542.41;5072637;28;20146;-61
2021/01/09 10:21:45;;;;;;;9.40;1.33;;;;;;;9.91;71.62;102546.78;5072418;28;20080;-59
2021/01/09 10:24:12;;;;;;;4.32;1.08;;;;;;;9.19;70.95;102546.56;5073285;28;20135;-58
2021/01/09 10:26:39;;;;;;;4.43;0.70;;;;;;;8.63;71.48;102539.84;5071992;28;20462;-57
2021/01/09 10:29:06;;;;;;;2.53;0.50;;;;;;;8.18;71.92;102531.31;5073320;28;20033;-54
2021/01/09 10:31:34;;;;;;;1.85;0.30;;;;;;;7.81;72.22;102525.09;5072002;28;20048;-56
2021/01/09 10:34:02;;;;;;;5.18;0.60;;;;;;;7.55;72.37;102528.34;5073277;28;20518;-56
2021/01/09 10:36:29;;;;;;;6.35;0.90;;;;;;;7.33;72.63;102519.72;5071181;28;20446;-55
2021/01/09 10:38:57;;;;;;;6.18;0.90;;;;;;;7.13;73.02;102521.94;5072779;28;20387;-55
2021/01/09 10:41:24;;;;;;;10.98;1.08;;;;;;;7.08;72.83;102514.31;5072222;28;20052;-55
2021/01/09 10:43:52;;;;;;;6.30;1.13;;;;;;;7.28;73.09;102513.16;5072827;28;20764;-56
2021/01/09 10:46:21;;;;;;;9.13;1.05;;;;;;;7.38;72.32;102514.31;5072009;28;20045;-58
2021/01/09 10:48:48;;;;;;;11.52;1.23;;;;;;;7.43;72.56;102503.31;5071579;28;20501;-60
2021/01/09 10:51:16;;;;;;;11.48;1.60;;;;;;;7.74;72.16;102504.94;5072745;28;20041;-60
2021/01/09 10:53:43;;;;;;;10.15;1.10;;;;;;;8.01;71.90;102504.44;5072029;28;20044;-61
2021/01/09 10:56:10;;;;;;;6.00;0.90;;;;;;;8.61;71.21;102502.22;5072261;28;20053;-62
2021/01/09 10:58:37;;;;;;;9.73;0.93;;;;;;;9.37;69.77;102505.69;5072481;28;20044;-63
2021/01/09 11:01:05;;;;;;;8.77;1.30;;;;;;;10.06;68.40;102507.13;5072044;28;20120;-63
2021/01/09 11:03:32;;;;;;;5.75;0.90;;;;;;;10.73;66.91;102500.56;5071193;28;20037;-63
2021/01/09 11:06:03;;;;;;;6.35;0.85;;;;;;;11.61;65.05;102500.06;5072057;28;20123;-66
2021/01/09 11:08:30;;;;;;;6.93;1.20;;;;;;;12.51;62.37;102506.63;5071215;28;20067;-63
2021/01/09 11:10:56;;;;;;;7.93;1.38;;;;;;;13.11;59.85;102505.19;5072521;28;20049;-64
2021/01/09 11:13:24;;;;;;;10.43;1.00;;;;;;;12.87;59.75;102501.19;5072027;28;20127;-63
2021/01/09 11:15:51;;;;;;;11.25;1.45;;;;;;;12.27;60.49;102499.78;5071834;28;20040;-62
2021/01/09 11:18:19;;;;;;;10.48;1.08;;;;;;;12.01;61.04;102495.94;5071610;28;20076;-61
2021/01/09 11:20:46;;;;;;;11.50;1.30;;;;;;;12.49;59.75;102496.81;5071978;28;20127;-62
2021/01/09 11:23:14;;;;;;;8.18;1.45;;;;;;;12.17;59.90;102488.53;5071620;28;20075;-63
2021/01/09 11:25:44;;;;;;;6.35;1.02;;;;;;;11.50;60.92;102484.34;5072200;28;20055;-64
2021/01/09 11:28:11;;;;;;;6.25;1.10;;;;;;;10.91;62.49;102501.06;5070999;28;20040;-62
2021/01/09 11:30:38;;;;;;;7.85;1.00;;;;;;;11.20;61.55;102482.06;5070549;28;20586;-64
2021/01/09 11:33:06;;;;;;;12.23;1.25;;;;;;;11.40;60.78;102481.44;5071838;28;20120;-63
2021/01/09 11:35:34;;;;;;;9.77;1.35;;;;;;;11.51;60.29;102487.97;5071250;28;20036;-63
2021/01/09 11:38:20;;;;;;;8.38;0.90;;;;;;;12.01;59.13;102485.59;5071599;28;20147;-62